sensor_id;sensor_type;location;lat;lon;timestamp;pressure;altitude;pressure_sealevel;temperature;humidity
79534;BME280;68982;52.160;6.736;2023-07-31T00:00:29;100753.81;;;15.26;92.48
79534;BME280;68982;52.160;6.736;2023-07-31T00:02:54;100761.00;;;15.21;91.95
79534;BME280;68982;52.160;6.736;2023-07-31T00:05:20;100756.81;;;15.18;92.09
79534;BME280;68982;52.160;6.736;2023-07-31T00:07:45;100759.72;;;15.23;92.10
79534;BME280;68982;52.160;6.736;2023-07-31T00:10:10;100756.09;;;15.04;92.02
79534;BME280;68982;52.160;6.736;2023-07-31T00:12:38;100761.91;;;15.08;93.27
79534;BME280;68982;52.160;6.736;2023-07-31T00:15:04;100763.34;;;15.10;92.89
79534;BME280;68982;52.160;6.736;2023-07-31T00:17:29;100765.00;;;15.11;93.37
79534;BME280;68982;52.160;6.736;2023-07-31T00:19:55;100744.66;;;14.96;93.98
79534;BME280;68982;52.160;6.736;2023-07-31T00:22:20;100741.16;;;14.88;94.86
79534;BME280;68982;52.160;6.736;2023-07-31T00:24:45;100746.44;;;15.08;93.52
79534;BME280;68982;52.160;6.736;2023-07-31T00:27:11;100749.94;;;15.16;92.78
79534;BME280;68982;52.160;6.736;2023-07-31T00:29:36;100752.59;;;14.97;93.01
79534;BME280;68982;52.160;6.736;2023-07-31T00:32:01;100754.91;;;14.93;94.26
79534;BME280;68982;52.160;6.736;2023-07-31T00:34:27;100749.91;;;14.90;95.58
79534;BME280;68982;52.160;6.736;2023-07-31T00:36:52;100741.41;;;15.12;93.77
79534;BME280;68982;52.160;6.736;2023-07-31T00:39:18;100739.78;;;15.04;94.12
79534;BME280;68982;52.160;6.736;2023-07-31T00:41:43;100752.38;;;14.99;94.16
79534;BME280;68982;52.160;6.736;2023-07-31T00:44:08;100748.72;;;14.80;96.03
79534;BME280;68982;52.160;6.736;2023-07-31T00:46:34;100741.16;;;14.88;95.04
79534;BME280;68982;52.160;6.736;2023-07-31T00:48:59;100743.09;;;14.81;96.39
79534;BME280;68982;52.160;6.736;2023-07-31T00:51:25;100741.00;;;14.83;96.28
79534;BME280;68982;52.160;6.736;2023-07-31T00:53:50;100731.06;;;14.96;95.98
79534;BME280;68982;52.160;6.736;2023-07-31T00:56:19;100723.91;;;15.08;95.52
79534;BME280;68982;52.160;6.736;2023-07-31T00:58:44;100713.66;;;15.10;94.93
79534;BME280;68982;52.160;6.736;2023-07-31T01:01:10;100709.03;;;14.85;96.08
79534;BME280;68982;52.160;6.736;2023-07-31T01:03:35;100714.69;;;15.34;93.44
79534;BME280;68982;52.160;6.736;2023-07-31T01:08:47;100710.69;;;15.37;93.35
79534;BME280;68982;52.160;6.736;2023-07-31T01:11:21;100707.03;;;15.24;94.91
79534;BME280;68982;52.160;6.736;2023-07-31T01:13:49;100687.97;;;15.06;95.65
79534;BME280;68982;52.160;6.736;2023-07-31T01:16:15;100694.03;;;15.08;94.80
79534;BME280;68982;52.160;6.736;2023-07-31T01:18:40;100696.50;;;15.34;92.68
79534;BME280;68982;52.160;6.736;2023-07-31T01:24:22;100691.91;;;15.10;95.65
79534;BME280;68982;52.160;6.736;2023-07-31T01:27:12;100694.91;;;15.02;95.88
79534;BME280;68982;52.160;6.736;2023-07-31T01:29:48;100689.47;;;15.27;93.82
79534;BME280;68982;52.160;6.736;2023-07-31T01:32:15;100696.69;;;15.15;95.74
79534;BME280;68982;52.160;6.736;2023-07-31T01:34:42;100700.06;;;15.10;96.05
79534;BME280;68982;52.160;6.736;2023-07-31T01:37:08;100693.13;;;14.89;96.82
79534;BME280;68982;52.160;6.736;2023-07-31T01:39:34;100681.06;;;15.10;96.49
79534;BME280;68982;52.160;6.736;2023-07-31T01:41:59;100685.31;;;14.99;96.20
79534;BME280;68982;52.160;6.736;2023-07-31T01:44:24;100679.78;;;14.87;97.73
79534;BME280;68982;52.160;6.736;2023-07-31T01:46:50;100675.94;;;14.95;97.92
79534;BME280;68982;52.160;6.736;2023-07-31T01:49:15;100678.50;;;15.15;95.77
79534;BME280;68982;52.160;6.736;2023-07-31T01:51:40;100680.22;;;15.09;97.58
79534;BME280;68982;52.160;6.736;2023-07-31T01:54:06;100666.22;;;14.87;97.68
79534;BME280;68982;52.160;6.736;2023-07-31T01:56:31;100666.16;;;14.94;98.30
79534;BME280;68982;52.160;6.736;2023-07-31T01:58:56;100653.56;;;15.00;97.66
79534;BME280;68982;52.160;6.736;2023-07-31T02:01:22;100655.66;;;14.98;98.03
79534;BME280;68982;52.160;6.736;2023-07-31T02:03:47;100657.47;;;14.85;99.54
79534;BME280;68982;52.160;6.736;2023-07-31T02:06:12;100645.31;;;14.88;99.58
79534;BME280;68982;52.160;6.736;2023-07-31T02:08:38;100653.41;;;14.95;99.56
79534;BME280;68982;52.160;6.736;2023-07-31T02:11:03;100648.66;;;14.90;100.00
79534;BME280;68982;52.160;6.736;2023-07-31T02:13:28;100642.69;;;15.00;99.11
79534;BME280;68982;52.160;6.736;2023-07-31T02:15:54;100637.38;;;15.11;97.97
79534;BME280;68982;52.160;6.736;2023-07-31T02:18:19;100642.38;;;15.15;99.17
79534;BME280;68982;52.160;6.736;2023-07-31T02:20:51;100622.28;;;15.16;98.91
79534;BME280;68982;52.160;6.736;2023-07-31T02:23:17;100620.63;;;15.15;100.00
79534;BME280;68982;52.160;6.736;2023-07-31T02:25:44;100625.19;;;15.21;100.00
79534;BME280;68982;52.160;6.736;2023-07-31T02:28:09;100609.94;;;15.20;99.52
79534;BME280;68982;52.160;6.736;2023-07-31T02:30:35;100613.78;;;15.12;100.00
79534;BME280;68982;52.160;6.736;2023-07-31T02:33:00;100612.25;;;15.16;100.00
79534;BME280;68982;52.160;6.736;2023-07-31T02:35:25;100617.84;;;15.21;100.00
79534;BME280;68982;52.160;6.736;2023-07-31T02:37:51;100605.50;;;15.25;100.00
79534;BME280;68982;52.160;6.736;2023-07-31T02:40:16;100606.31;;;15.26;100.00
79534;BME280;68982;52.160;6.736;2023-07-31T02:42:42;100608.44;;;15.24;100.00
79534;BME280;68982;52.160;6.736;2023-07-31T02:45:07;100594.63;;;15.25;100.00
79534;BME280;68982;52.160;6.736;2023-07-31T02:47:33;100599.81;;;15.27;100.00
79534;BME280;68982;52.160;6.736;2023-07-31T02:49:58;100596.75;;;15.23;100.00
79534;BME280;68982;52.160;6.736;2023-07-31T02:52:25;100595.81;;;15.29;100.00
79534;BME280;68982;52.160;6.736;2023-07-31T02:54:50;100601.84;;;15.31;100.00
79534;BME280;68982;52.160;6.736;2023-07-31T02:57:15;100604.88;;;15.23;100.00
79534;BME280;68982;52.160;6.736;2023-07-31T02:59:41;100589.13;;;15.32;100.00
79534;BME280;68982;52.160;6.736;2023-07-31T03:02:06;100595.66;;;15.24;100.00
79534;BME280;68982;52.160;6.736;2023-07-31T03:04:32;100598.25;;;15.38;99.85
79534;BME280;68982;52.160;6.736;2023-07-31T03:06:57;100595.16;;;15.34;100.00
79534;BME280;68982;52.160;6.736;2023-07-31T03:09:23;100593.16;;;15.23;100.00
79534;BME280;68982;52.160;6.736;2023-07-31T03:11:48;100602.03;;;15.37;100.00
79534;BME280;68982;52.160;6.736;2023-07-31T03:14:13;100606.25;;;15.32;100.00
79534;BME280;68982;52.160;6.736;2023-07-31T03:16:39;100604.56;;;15.31;100.00
79534;BME280;68982;52.160;6.736;2023-07-31T03:19:04;100596.28;;;15.26;100.00
79534;BME280;68982;52.160;6.736;2023-07-31T03:21:29;100608.34;;;15.30;100.00
79534;BME280;68982;52.160;6.736;2023-07-31T03:23:55;100617.03;;;15.21;100.00
79534;BME280;68982;52.160;6.736;2023-07-31T03:26:20;100611.00;;;15.19;100.00
79534;BME280;68982;52.160;6.736;2023-07-31T03:28:46;100608.72;;;15.16;100.00
79534;BME280;68982;52.160;6.736;2023-07-31T03:31:11;100601.19;;;15.36;100.00
79534;BME280;68982;52.160;6.736;2023-07-31T03:33:36;100600.41;;;15.29;100.00
79534;BME280;68982;52.160;6.736;2023-07-31T03:36:02;100603.59;;;15.26;100.00
79534;BME280;68982;52.160;6.736;2023-07-31T03:38:27;100608.50;;;15.36;100.00
79534;BME280;68982;52.160;6.736;2023-07-31T03:40:53;100609.84;;;15.26;100.00
79534;BME280;68982;52.160;6.736;2023-07-31T03:43:18;100611.53;;;15.27;100.00
79534;BME280;68982;52.160;6.736;2023-07-31T03:45:43;100613.19;;;15.28;100.00
79534;BME280;68982;52.160;6.736;2023-07-31T03:48:09;100610.06;;;15.25;100.00
79534;BME280;68982;52.160;6.736;2023-07-31T03:50:34;100616.56;;;15.24;100.00
79534;BME280;68982;52.160;6.736;2023-07-31T03:53:00;100604.34;;;15.33;100.00
79534;BME280;68982;52.160;6.736;2023-07-31T03:55:25;100609.25;;;15.24;100.00
79534;BME280;68982;52.160;6.736;2023-07-31T03:57:51;100609.56;;;15.34;100.00
79534;BME280;68982;52.160;6.736;2023-07-31T04:00:16;100610.47;;;15.28;100.00
79534;BME280;68982;52.160;6.736;2023-07-31T04:02:41;100614.81;;;15.29;100.00
79534;BME280;68982;52.160;6.736;2023-07-31T04:05:07;100609.47;;;15.23;100.00
79534;BME280;68982;52.160;6.736;2023-07-31T04:07:32;100606.16;;;15.21;100.00
79534;BME280;68982;52.160;6.736;2023-07-31T04:09:58;100605.72;;;15.24;100.00
79534;BME280;68982;52.160;6.736;2023-07-31T04:12:23;100598.38;;;15.24;100.00
79534;BME280;68982;52.160;6.736;2023-07-31T04:14:49;100601.41;;;15.34;100.00
79534;BME280;68982;52.160;6.736;2023-07-31T04:17:15;100597.94;;;15.27;100.00
79534;BME280;68982;52.160;6.736;2023-07-31T04:19:40;100596.50;;;15.25;100.00
79534;BME280;68982;52.160;6.736;2023-07-31T04:22:05;100609.56;;;15.34;99.47
79534;BME280;68982;52.160;6.736;2023-07-31T04:24:31;100606.81;;;15.16;100.00
79534;BME280;68982;52.160;6.736;2023-07-31T04:26:56;100607.66;;;15.17;100.00
79534;BME280;68982;52.160;6.736;2023-07-31T04:29:22;100604.63;;;15.25;100.00
79534;BME280;68982;52.160;6.736;2023-07-31T04:31:48;100610.94;;;15.25;100.00
79534;BME280;68982;52.160;6.736;2023-07-31T04:34:13;100599.53;;;15.17;99.82
79534;BME280;68982;52.160;6.736;2023-07-31T04:36:38;100598.66;;;15.16;99.71
79534;BME280;68982;52.160;6.736;2023-07-31T04:39:04;100601.03;;;15.12;100.00
79534;BME280;68982;52.160;6.736;2023-07-31T04:41:29;100601.03;;;15.12;100.00
79534;BME280;68982;52.160;6.736;2023-07-31T04:43:54;100598.44;;;15.18;99.23
79534;BME280;68982;52.160;6.736;2023-07-31T04:46:20;100594.38;;;15.08;99.44
79534;BME280;68982;52.160;6.736;2023-07-31T04:48:45;100599.66;;;15.03;100.00
79534;BME280;68982;52.160;6.736;2023-07-31T04:51:10;100589.75;;;15.09;100.00
79534;BME280;68982;52.160;6.736;2023-07-31T04:53:36;100584.06;;;15.17;99.85
79534;BME280;68982;52.160;6.736;2023-07-31T04:56:02;100594.38;;;15.08;99.14
79534;BME280;68982;52.160;6.736;2023-07-31T04:58:27;100593.16;;;15.04;99.06
79534;BME280;68982;52.160;6.736;2023-07-31T05:00:52;100583.13;;;15.05;99.35
79534;BME280;68982;52.160;6.736;2023-07-31T05:03:18;100577.25;;;15.08;99.62
79534;BME280;68982;52.160;6.736;2023-07-31T05:05:43;100583.56;;;15.02;100.00
79534;BME280;68982;52.160;6.736;2023-07-31T05:08:08;100582.34;;;14.98;99.86
79534;BME280;68982;52.160;6.736;2023-07-31T05:10:34;100582.97;;;15.18;98.32
79534;BME280;68982;52.160;6.736;2023-07-31T05:12:59;100579.22;;;15.19;97.93
79534;BME280;68982;52.160;6.736;2023-07-31T05:15:26;100580.19;;;15.06;98.93
79534;BME280;68982;52.160;6.736;2023-07-31T05:17:51;100574.00;;;15.18;97.53
79534;BME280;68982;52.160;6.736;2023-07-31T05:20:16;100566.41;;;15.08;97.68
79534;BME280;68982;52.160;6.736;2023-07-31T05:22:42;100566.53;;;15.13;96.98
79534;BME280;68982;52.160;6.736;2023-07-31T05:25:07;100570.53;;;15.10;98.54
79534;BME280;68982;52.160;6.736;2023-07-31T05:27:33;100579.56;;;15.04;99.38
79534;BME280;68982;52.160;6.736;2023-07-31T05:29:58;100585.69;;;15.00;99.98
79534;BME280;68982;52.160;6.736;2023-07-31T05:32:24;100577.88;;;15.10;98.26
79534;BME280;68982;52.160;6.736;2023-07-31T05:34:52;100568.72;;;15.04;99.13
79534;BME280;68982;52.160;6.736;2023-07-31T05:37:18;100564.28;;;15.10;99.23
79534;BME280;68982;52.160;6.736;2023-07-31T05:39:44;100559.75;;;15.22;97.77
79534;BME280;68982;52.160;6.736;2023-07-31T05:42:09;100563.59;;;15.15;98.73
79534;BME280;68982;52.160;6.736;2023-07-31T05:44:35;100559.69;;;15.10;97.97
79534;BME280;68982;52.160;6.736;2023-07-31T05:47:00;100561.03;;;15.01;99.66
79534;BME280;68982;52.160;6.736;2023-07-31T05:49:26;100554.19;;;15.17;98.22
79534;BME280;68982;52.160;6.736;2023-07-31T05:51:51;100550.94;;;15.08;99.07
79534;BME280;68982;52.160;6.736;2023-07-31T05:54:16;100550.25;;;15.13;98.76
79534;BME280;68982;52.160;6.736;2023-07-31T05:56:42;100551.91;;;15.14;98.57
79534;BME280;68982;52.160;6.736;2023-07-31T05:59:09;100561.44;;;15.23;98.69
79534;BME280;68982;52.160;6.736;2023-07-31T06:01:35;100556.13;;;15.10;98.47
79534;BME280;68982;52.160;6.736;2023-07-31T06:04:00;100560.22;;;15.19;98.85
79534;BME280;68982;52.160;6.736;2023-07-31T06:06:27;100552.75;;;15.15;99.54
79534;BME280;68982;52.160;6.736;2023-07-31T06:08:53;100556.00;;;15.23;99.54
79534;BME280;68982;52.160;6.736;2023-07-31T06:11:20;100554.25;;;15.47;98.00
79534;BME280;68982;52.160;6.736;2023-07-31T06:13:45;100546.09;;;15.29;98.37
79534;BME280;68982;52.160;6.736;2023-07-31T06:16:13;100544.53;;;15.21;98.81
79534;BME280;68982;52.160;6.736;2023-07-31T06:18:39;100543.91;;;15.19;98.85
79534;BME280;68982;52.160;6.736;2023-07-31T06:21:05;100546.31;;;15.09;99.87
79534;BME280;68982;52.160;6.736;2023-07-31T06:23:30;100545.72;;;15.07;100.00
79534;BME280;68982;52.160;6.736;2023-07-31T06:25:56;100544.66;;;15.08;100.00
79534;BME280;68982;52.160;6.736;2023-07-31T06:28:21;100546.56;;;15.07;100.00
79534;BME280;68982;52.160;6.736;2023-07-31T06:30:46;100535.69;;;15.07;100.00
79534;BME280;68982;52.160;6.736;2023-07-31T06:33:12;100541.19;;;15.19;99.01
79534;BME280;68982;52.160;6.736;2023-07-31T06:35:38;100530.03;;;15.27;98.58
79534;BME280;68982;52.160;6.736;2023-07-31T06:38:03;100524.38;;;15.29;99.05
79534;BME280;68982;52.160;6.736;2023-07-31T06:40:29;100533.66;;;15.21;99.94
79534;BME280;68982;52.160;6.736;2023-07-31T06:42:54;100531.91;;;15.08;100.00
79534;BME280;68982;52.160;6.736;2023-07-31T06:45:20;100525.81;;;15.13;100.00
79534;BME280;68982;52.160;6.736;2023-07-31T06:47:47;100521.50;;;15.24;100.00
